sensor_id;sensor_type;location;lat;lon;timestamp;P1;durP1;ratioP1;P2;durP2;ratioP2
21416;SDS011;10869;52.238;10.716;2023-11-21T04:05:10;51.30;;;21.40;;
21416;SDS011;10869;52.238;10.716;2023-11-21T04:07:37;53.60;;;22.50;;
21416;SDS011;10869;52.238;10.716;2023-11-21T04:10:04;46.57;;;22.87;;
21416;SDS011;10869;52.238;10.716;2023-11-21T04:12:33;55.87;;;23.37;;
21416;SDS011;10869;52.238;10.716;2023-11-21T04:14:59;53.43;;;23.10;;
21416;SDS011;10869;52.238;10.716;2023-11-21T04:17:25;53.67;;;24.47;;
21416;SDS011;10869;52.238;10.716;2023-11-21T04:19:51;44.63;;;21.37;;
21416;SDS011;10869;52.238;10.716;2023-11-21T04:22:17;68.83;;;28.23;;
21416;SDS011;10869;52.238;10.716;2023-11-21T04:24:42;52.60;;;25.83;;
21416;SDS011;10869;52.238;10.716;2023-11-21T04:27:08;54.57;;;24.63;;
21416;SDS011;10869;52.238;10.716;2023-11-21T04:29:34;52.17;;;24.87;;
21416;SDS011;10869;52.238;10.716;2023-11-21T04:32:00;50.57;;;25.57;;
21416;SDS011;10869;52.238;10.716;2023-11-21T04:34:27;54.03;;;24.20;;
21416;SDS011;10869;52.238;10.716;2023-11-21T04:36:56;42.93;;;23.83;;
21416;SDS011;10869;52.238;10.716;2023-11-21T04:39:22;57.93;;;24.47;;
21416;SDS011;10869;52.238;10.716;2023-11-21T04:41:48;54.27;;;24.80;;
21416;SDS011;10869;52.238;10.716;2023-11-21T04:44:13;54.07;;;23.73;;
21416;SDS011;10869;52.238;10.716;2023-11-21T04:46:41;45.57;;;23.03;;
21416;SDS011;10869;52.238;10.716;2023-11-21T04:49:07;49.77;;;24.23;;
21416;SDS011;10869;52.238;10.716;2023-11-21T04:51:32;48.97;;;23.73;;
21416;SDS011;10869;52.238;10.716;2023-11-21T04:53:58;51.83;;;24.77;;
21416;SDS011;10869;52.238;10.716;2023-11-21T04:56:24;49.30;;;24.80;;
21416;SDS011;10869;52.238;10.716;2023-11-21T04:58:50;60.93;;;26.77;;
21416;SDS011;10869;52.238;10.716;2023-11-21T05:01:16;56.40;;;26.40;;
21416;SDS011;10869;52.238;10.716;2023-11-21T05:03:41;51.47;;;25.67;;
21416;SDS011;10869;52.238;10.716;2023-11-21T05:06:09;69.73;;;28.07;;
21416;SDS011;10869;52.238;10.716;2023-11-21T05:08:35;50.90;;;24.80;;
21416;SDS011;10869;52.238;10.716;2023-11-21T05:11:02;52.50;;;25.47;;
21416;SDS011;10869;52.238;10.716;2023-11-21T05:13:28;50.43;;;24.73;;
21416;SDS011;10869;52.238;10.716;2023-11-21T05:15:54;54.73;;;25.37;;
21416;SDS011;10869;52.238;10.716;2023-11-21T05:18:23;62.27;;;29.77;;
21416;SDS011;10869;52.238;10.716;2023-11-21T05:20:52;48.83;;;24.60;;
21416;SDS011;10869;52.238;10.716;2023-11-21T05:23:18;50.17;;;26.87;;
21416;SDS011;10869;52.238;10.716;2023-11-21T05:25:44;56.27;;;27.73;;
21416;SDS011;10869;52.238;10.716;2023-11-21T05:28:11;45.87;;;24.70;;
21416;SDS011;10869;52.238;10.716;2023-11-21T05:30:37;107.77;;;34.70;;
21416;SDS011;10869;52.238;10.716;2023-11-21T05:33:05;46.57;;;25.30;;
21416;SDS011;10869;52.238;10.716;2023-11-21T05:35:31;53.90;;;26.23;;
21416;SDS011;10869;52.238;10.716;2023-11-21T05:37:57;83.17;;;28.37;;
21416;SDS011;10869;52.238;10.716;2023-11-21T05:40:23;48.40;;;25.00;;
21416;SDS011;10869;52.238;10.716;2023-11-21T05:42:48;57.70;;;27.40;;
21416;SDS011;10869;52.238;10.716;2023-11-21T05:45:16;50.80;;;26.37;;
21416;SDS011;10869;52.238;10.716;2023-11-21T05:47:45;62.97;;;28.73;;
21416;SDS011;10869;52.238;10.716;2023-11-21T05:50:12;56.27;;;27.10;;
21416;SDS011;10869;52.238;10.716;2023-11-21T05:52:47;119.70;;;34.27;;
21416;SDS011;10869;52.238;10.716;2023-11-21T05:55:13;54.37;;;27.53;;
21416;SDS011;10869;52.238;10.716;2023-11-21T05:57:43;126.13;;;34.07;;
21416;SDS011;10869;52.238;10.716;2023-11-21T06:00:20;63.90;;;27.77;;
21416;SDS011;10869;52.238;10.716;2023-11-21T06:02:57;99.70;;;32.63;;
21416;SDS011;10869;52.238;10.716;2023-11-21T06:05:23;65.87;;;27.60;;
21416;SDS011;10869;52.238;10.716;2023-11-21T06:07:50;72.30;;;26.63;;
21416;SDS011;10869;52.238;10.716;2023-11-21T06:13:41;21.40;;;7.27;;
21416;SDS011;10869;52.238;10.716;2023-11-21T06:19:29;35.07;;;11.60;;
21416;SDS011;10869;52.238;10.716;2023-11-21T06:25:17;30.87;;;14.50;;
21416;SDS011;10869;52.238;10.716;2023-11-21T06:31:05;52.50;;;21.40;;
21416;SDS011;10869;52.238;10.716;2023-11-21T06:33:31;41.90;;;18.23;;
21416;SDS011;10869;52.238;10.716;2023-11-21T06:39:19;33.70;;;16.30;;
21416;SDS011;10869;52.238;10.716;2023-11-21T06:41:47;31.57;;;17.10;;
21416;SDS011;10869;52.238;10.716;2023-11-21T06:44:16;36.80;;;18.03;;
21416;SDS011;10869;52.238;10.716;2023-11-21T06:46:41;30.87;;;17.17;;
21416;SDS011;10869;52.238;10.716;2023-11-21T06:52:29;60.37;;;21.20;;
21416;SDS011;10869;52.238;10.716;2023-11-21T06:58:17;32.60;;;16.87;;
21416;SDS011;10869;52.238;10.716;2023-11-21T07:04:05;34.77;;;17.60;;
21416;SDS011;10869;52.238;10.716;2023-11-21T07:09:53;48.13;;;20.20;;
21416;SDS011;10869;52.238;10.716;2023-11-21T07:12:22;41.90;;;19.77;;
21416;SDS011;10869;52.238;10.716;2023-11-21T07:14:54;44.07;;;20.93;;
21416;SDS011;10869;52.238;10.716;2023-11-21T07:20:04;60.60;;;25.77;;
21416;SDS011;10869;52.238;10.716;2023-11-21T07:22:35;65.43;;;25.50;;
21416;SDS011;10869;52.238;10.716;2023-11-21T07:25:07;119.70;;;31.93;;
21416;SDS011;10869;52.238;10.716;2023-11-21T07:27:41;87.40;;;28.23;;
21416;SDS011;10869;52.238;10.716;2023-11-21T07:30:07;81.23;;;27.17;;
21416;SDS011;10869;52.238;10.716;2023-11-21T07:32:35;53.70;;;24.27;;
21416;SDS011;10869;52.238;10.716;2023-11-21T07:35:00;56.53;;;23.37;;
21416;SDS011;10869;52.238;10.716;2023-11-21T07:40:48;33.77;;;16.67;;
21416;SDS011;10869;52.238;10.716;2023-11-21T07:43:14;79.57;;;21.73;;
21416;SDS011;10869;52.238;10.716;2023-11-21T07:45:40;50.60;;;19.20;;
21416;SDS011;10869;52.238;10.716;2023-11-21T07:48:07;38.70;;;20.13;;
21416;SDS011;10869;52.238;10.716;2023-11-21T07:53:55;36.93;;;18.80;;
21416;SDS011;10869;52.238;10.716;2023-11-21T08:01:35;27.53;;;16.93;;
21416;SDS011;10869;52.238;10.716;2023-11-21T08:04:01;29.90;;;17.70;;
21416;SDS011;10869;52.238;10.716;2023-11-21T08:06:49;30.23;;;17.30;;
21416;SDS011;10869;52.238;10.716;2023-11-21T08:09:19;29.33;;;17.53;;
21416;SDS011;10869;52.238;10.716;2023-11-21T08:11:44;48.13;;;17.50;;
21416;SDS011;10869;52.238;10.716;2023-11-21T08:14:12;25.03;;;13.70;;
21416;SDS011;10869;52.238;10.716;2023-11-21T08:16:38;27.40;;;15.20;;
21416;SDS011;10869;52.238;10.716;2023-11-21T08:19:04;26.00;;;16.43;;
21416;SDS011;10869;52.238;10.716;2023-11-21T08:21:33;25.10;;;16.00;;
21416;SDS011;10869;52.238;10.716;2023-11-21T08:23:59;26.10;;;16.67;;
21416;SDS011;10869;52.238;10.716;2023-11-21T08:26:31;30.77;;;18.03;;
21416;SDS011;10869;52.238;10.716;2023-11-21T08:28:57;25.03;;;16.13;;
21416;SDS011;10869;52.238;10.716;2023-11-21T08:36:34;32.77;;;18.13;;
21416;SDS011;10869;52.238;10.716;2023-11-21T08:39:00;36.13;;;18.87;;
21416;SDS011;10869;52.238;10.716;2023-11-21T08:41:29;37.13;;;20.77;;
21416;SDS011;10869;52.238;10.716;2023-11-21T08:49:06;39.60;;;22.10;;
21416;SDS011;10869;52.238;10.716;2023-11-21T08:51:38;32.17;;;20.10;;
21416;SDS011;10869;52.238;10.716;2023-11-21T08:54:05;32.60;;;20.60;;
21416;SDS011;10869;52.238;10.716;2023-11-21T09:12:41;15.57;;;9.83;;
21416;SDS011;10869;52.238;10.716;2023-11-21T09:15:11;19.90;;;12.43;;
21416;SDS011;10869;52.238;10.716;2023-11-21T09:17:43;20.20;;;12.10;;
21416;SDS011;10869;52.238;10.716;2023-11-21T09:20:09;19.70;;;12.10;;
21416;SDS011;10869;52.238;10.716;2023-11-21T09:22:35;20.23;;;11.93;;
21416;SDS011;10869;52.238;10.716;2023-11-21T09:25:01;16.83;;;11.63;;
21416;SDS011;10869;52.238;10.716;2023-11-21T09:33:31;16.33;;;10.80;;
21416;SDS011;10869;52.238;10.716;2023-11-21T09:35:57;15.97;;;10.73;;
21416;SDS011;10869;52.238;10.716;2023-11-21T09:44:20;15.17;;;9.57;;
21416;SDS011;10869;52.238;10.716;2023-11-21T09:46:53;20.67;;;11.33;;
21416;SDS011;10869;52.238;10.716;2023-11-21T09:55:36;15.70;;;10.97;;
21416;SDS011;10869;52.238;10.716;2023-11-21T09:58:05;16.23;;;9.67;;
21416;SDS011;10869;52.238;10.716;2023-11-21T10:00:35;16.77;;;10.83;;
21416;SDS011;10869;52.238;10.716;2023-11-21T10:03:14;18.33;;;11.03;;
21416;SDS011;10869;52.238;10.716;2023-11-21T10:08:18;17.73;;;10.70;;
21416;SDS011;10869;52.238;10.716;2023-11-21T10:19:23;21.50;;;12.73;;
21416;SDS011;10869;52.238;10.716;2023-11-21T10:21:55;19.20;;;13.13;;
21416;SDS011;10869;52.238;10.716;2023-11-21T10:24:22;20.33;;;13.03;;
21416;SDS011;10869;52.238;10.716;2023-11-21T10:26:48;17.60;;;11.37;;
21416;SDS011;10869;52.238;10.716;2023-11-21T10:29:16;16.60;;;10.53;;
21416;SDS011;10869;52.238;10.716;2023-11-21T10:31:42;15.83;;;11.03;;
21416;SDS011;10869;52.238;10.716;2023-11-21T10:36:42;18.37;;;12.27;;
21416;SDS011;10869;52.238;10.716;2023-11-21T10:39:08;17.50;;;11.43;;
21416;SDS011;10869;52.238;10.716;2023-11-21T10:41:37;19.63;;;13.30;;
21416;SDS011;10869;52.238;10.716;2023-11-21T10:44:03;17.77;;;11.37;;
21416;SDS011;10869;52.238;10.716;2023-11-21T10:46:31;16.63;;;11.63;;
21416;SDS011;10869;52.238;10.716;2023-11-21T10:48:57;15.50;;;10.40;;
21416;SDS011;10869;52.238;10.716;2023-11-21T10:51:22;17.70;;;11.87;;
21416;SDS011;10869;52.238;10.716;2023-11-21T10:53:51;18.07;;;11.53;;
21416;SDS011;10869;52.238;10.716;2023-11-21T10:56:18;16.00;;;11.47;;
21416;SDS011;10869;52.238;10.716;2023-11-21T10:58:46;20.07;;;13.37;;
21416;SDS011;10869;52.238;10.716;2023-11-21T11:01:14;22.17;;;12.87;;
21416;SDS011;10869;52.238;10.716;2023-11-21T11:11:06;16.50;;;11.20;;
21416;SDS011;10869;52.238;10.716;2023-11-21T11:13:34;18.33;;;10.83;;
21416;SDS011;10869;52.238;10.716;2023-11-21T11:16:03;15.67;;;11.53;;
21416;SDS011;10869;52.238;10.716;2023-11-21T11:18:32;15.77;;;10.63;;
21416;SDS011;10869;52.238;10.716;2023-11-21T11:29:28;15.77;;;11.30;;
21416;SDS011;10869;52.238;10.716;2023-11-21T11:35:23;14.30;;;10.77;;
21416;SDS011;10869;52.238;10.716;2023-11-21T11:37:31;18.47;;;11.17;;
21416;SDS011;10869;52.238;10.716;2023-11-21T11:39:57;15.87;;;10.90;;
21416;SDS011;10869;52.238;10.716;2023-11-21T11:42:24;16.40;;;10.90;;
21416;SDS011;10869;52.238;10.716;2023-11-21T11:44:52;14.67;;;10.23;;
21416;SDS011;10869;52.238;10.716;2023-11-21T11:52:47;16.53;;;10.10;;
21416;SDS011;10869;52.238;10.716;2023-11-21T11:55:18;16.33;;;10.90;;
21416;SDS011;10869;52.238;10.716;2023-11-21T11:57:47;15.20;;;9.73;;
21416;SDS011;10869;52.238;10.716;2023-11-21T12:00:20;17.83;;;9.80;;
21416;SDS011;10869;52.238;10.716;2023-11-21T12:02:55;15.07;;;10.97;;
21416;SDS011;10869;52.238;10.716;2023-11-21T12:10:33;15.87;;;10.60;;
21416;SDS011;10869;52.238;10.716;2023-11-21T12:13:07;17.70;;;10.97;;
21416;SDS011;10869;52.238;10.716;2023-11-21T12:15:35;14.70;;;9.50;;
21416;SDS011;10869;52.238;10.716;2023-11-21T12:18:02;15.63;;;8.83;;
21416;SDS011;10869;52.238;10.716;2023-11-21T12:20:29;14.43;;;8.40;;
21416;SDS011;10869;52.238;10.716;2023-11-21T12:33:45;10.83;;;7.07;;
21416;SDS011;10869;52.238;10.716;2023-11-21T12:43:57;11.10;;;7.17;;
21416;SDS011;10869;52.238;10.716;2023-11-21T12:46:23;11.10;;;6.83;;
21416;SDS011;10869;52.238;10.716;2023-11-21T12:48:53;11.77;;;6.63;;
21416;SDS011;10869;52.238;10.716;2023-11-21T12:51:19;11.63;;;6.50;;
21416;SDS011;10869;52.238;10.716;2023-11-21T12:53:47;9.17;;;5.47;;
21416;SDS011;10869;52.238;10.716;2023-11-21T12:58:48;8.37;;;5.17;;
21416;SDS011;10869;52.238;10.716;2023-11-21T13:01:18;7.40;;;3.57;;
21416;SDS011;10869;52.238;10.716;2023-11-21T13:03:50;8.47;;;4.60;;
21416;SDS011;10869;52.238;10.716;2023-11-21T13:19:11;9.03;;;5.40;;
21416;SDS011;10869;52.238;10.716;2023-11-21T13:21:44;8.87;;;5.53;;
21416;SDS011;10869;52.238;10.716;2023-11-21T13:24:09;13.03;;;5.87;;
21416;SDS011;10869;52.238;10.716;2023-11-21T13:26:36;11.30;;;6.43;;
21416;SDS011;10869;52.238;10.716;2023-11-21T13:29:02;10.37;;;6.10;;
21416;SDS011;10869;52.238;10.716;2023-11-21T13:31:30;9.27;;;6.00;;
21416;SDS011;10869;52.238;10.716;2023-11-21T13:34:01;8.07;;;5.37;;
21416;SDS011;10869;52.238;10.716;2023-11-21T13:39:52;10.63;;;5.97;;
21416;SDS011;10869;52.238;10.716;2023-11-21T13:42:19;9.17;;;6.07;;
21416;SDS011;10869;52.238;10.716;2023-11-21T13:44:55;12.83;;;6.60;;
21416;SDS011;10869;52.238;10.716;2023-11-21T13:47:22;11.67;;;6.30;;
21416;SDS011;10869;52.238;10.716;2023-11-21T13:49:54;11.60;;;7.30;;
21416;SDS011;10869;52.238;10.716;2023-11-21T13:52:20;9.03;;;5.57;;
21416;SDS011;10869;52.238;10.716;2023-11-21T13:54:49;9.80;;;5.63;;
21416;SDS011;10869;52.238;10.716;2023-11-21T14:00:39;11.17;;;6.13;;
21416;SDS011;10869;52.238;10.716;2023-11-21T14:06:37;9.50;;;5.83;;
21416;SDS011;10869;52.238;10.716;2023-11-21T14:09:13;10.63;;;5.60;;
21416;SDS011;10869;52.238;10.716;2023-11-21T14:15:11;11.93;;;6.17;;
21416;SDS011;10869;52.238;10.716;2023-11-21T14:17:42;10.70;;;5.70;;
21416;SDS011;10869;52.238;10.716;2023-11-21T14:20:08;9.37;;;5.40;;
21416;SDS011;10869;52.238;10.716;2023-11-21T14:22:40;10.20;;;5.43;;
21416;SDS011;10869;52.238;10.716;2023-11-21T14:28:31;9.13;;;4.83;;
21416;SDS011;10869;52.238;10.716;2023-11-21T14:34:22;10.30;;;5.30;;
21416;SDS011;10869;52.238;10.716;2023-11-21T14:44:35;9.97;;;5.23;;
21416;SDS011;10869;52.238;10.716;2023-11-21T14:47:05;11.43;;;6.17;;
21416;SDS011;10869;52.238;10.716;2023-11-21T14:49:42;11.03;;;5.63;;
21416;SDS011;10869;52.238;10.716;2023-11-21T14:52:18;9.40;;;5.60;;
21416;SDS011;10869;52.238;10.716;2023-11-21T14:54:53;9.40;;;5.90;;
21416;SDS011;10869;52.238;10.716;2023-11-21T14:57:39;8.10;;;5.13;;
21416;SDS011;10869;52.238;10.716;2023-11-21T15:00:05;9.37;;;5.63;;
21416;SDS011;10869;52.238;10.716;2023-11-21T15:02:47;9.93;;;6.40;;
21416;SDS011;10869;52.238;10.716;2023-11-21T15:05:18;10.43;;;6.03;;
21416;SDS011;10869;52.238;10.716;2023-11-21T15:07:45;9.87;;;5.53;;
21416;SDS011;10869;52.238;10.716;2023-11-21T15:36:09;9.30;;;5.63;;
21416;SDS011;10869;52.238;10.716;2023-11-21T15:38:37;13.20;;;7.63;;
21416;SDS011;10869;52.238;10.716;2023-11-21T15:41:04;9.23;;;6.03;;
21416;SDS011;10869;52.238;10.716;2023-11-21T15:43:35;9.63;;;5.60;;
21416;SDS011;10869;52.238;10.716;2023-11-21T15:49:23;9.97;;;6.20;;
21416;SDS011;10869;52.238;10.716;2023-11-21T15:55:15;11.10;;;6.50;;
21416;SDS011;10869;52.238;10.716;2023-11-21T15:58:00;11.50;;;6.50;;
21416;SDS011;10869;52.238;10.716;2023-11-21T17:20:48;14.17;;;8.60;;
21416;SDS011;10869;52.238;10.716;2023-11-21T17:23:14;17.70;;;9.20;;
21416;SDS011;10869;52.238;10.716;2023-11-21T17:29:04;14.43;;;8.37;;
21416;SDS011;10869;52.238;10.716;2023-11-21T17:31:31;14.43;;;9.63;;
21416;SDS011;10869;52.238;10.716;2023-11-21T17:49:29;14.83;;;8.87;;
21416;SDS011;10869;52.238;10.716;2023-11-21T17:54:33;14.37;;;8.00;;
21416;SDS011;10869;52.238;10.716;2023-11-21T17:57:03;13.53;;;7.90;;
21416;SDS011;10869;52.238;10.716;2023-11-21T17:59:29;13.77;;;7.40;;
21416;SDS011;10869;52.238;10.716;2023-11-21T18:01:59;15.07;;;7.00;;
21416;SDS011;10869;52.238;10.716;2023-11-21T18:07:47;12.87;;;6.57;;
21416;SDS011;10869;52.238;10.716;2023-11-21T18:10:12;11.50;;;6.20;;
21416;SDS011;10869;52.238;10.716;2023-11-21T18:12:38;9.30;;;5.30;;
21416;SDS011;10869;52.238;10.716;2023-11-21T18:15:04;10.87;;;6.43;;
21416;SDS011;10869;52.238;10.716;2023-11-21T18:17:30;9.43;;;5.70;;
21416;SDS011;10869;52.238;10.716;2023-11-21T18:19:56;10.80;;;6.83;;
21416;SDS011;10869;52.238;10.716;2023-11-21T18:22:22;11.30;;;6.67;;
21416;SDS011;10869;52.238;10.716;2023-11-21T18:24:53;10.77;;;5.80;;
21416;SDS011;10869;52.238;10.716;2023-11-21T18:27:19;11.60;;;6.23;;
21416;SDS011;10869;52.238;10.716;2023-11-21T18:29:52;13.40;;;6.40;;
21416;SDS011;10869;52.238;10.716;2023-11-21T18:32:23;8.93;;;5.13;;
21416;SDS011;10869;52.238;10.716;2023-11-21T18:34:49;10.80;;;5.70;;
21416;SDS011;10869;52.238;10.716;2023-11-21T18:37:15;9.00;;;5.47;;
21416;SDS011;10869;52.238;10.716;2023-11-21T18:39:41;8.80;;;4.50;;
21416;SDS011;10869;52.238;10.716;2023-11-21T18:42:08;10.67;;;5.30;;
21416;SDS011;10869;52.238;10.716;2023-11-21T18:44:34;12.80;;;5.60;;
21416;SDS011;10869;52.238;10.716;2023-11-21T18:47:00;9.73;;;5.30;;
21416;SDS011;10869;52.238;10.716;2023-11-21T18:49:25;11.83;;;6.03;;
21416;SDS011;10869;52.238;10.716;2023-11-21T18:51:51;10.30;;;5.57;;
21416;SDS011;10869;52.238;10.716;2023-11-21T18:54:17;11.37;;;5.87;;
21416;SDS011;10869;52.238;10.716;2023-11-21T18:56:43;8.13;;;4.97;;
21416;SDS011;10869;52.238;10.716;2023-11-21T18:59:08;10.20;;;5.80;;
21416;SDS011;10869;52.238;10.716;2023-11-21T19:01:36;9.20;;;5.53;;
21416;SDS011;10869;52.238;10.716;2023-11-21T19:04:02;12.70;;;5.60;;
21416;SDS011;10869;52.238;10.716;2023-11-21T19:09:53;12.77;;;7.07;;
21416;SDS011;10869;52.238;10.716;2023-11-21T19:12:20;15.43;;;7.13;;
21416;SDS011;10869;52.238;10.716;2023-11-21T19:14:46;12.07;;;6.37;;
21416;SDS011;10869;52.238;10.716;2023-11-21T19:17:15;21.30;;;7.97;;
21416;SDS011;10869;52.238;10.716;2023-11-21T19:19:43;10.93;;;5.47;;
21416;SDS011;10869;52.238;10.716;2023-11-21T19:22:10;11.80;;;5.60;;
21416;SDS011;10869;52.238;10.716;2023-11-21T19:28:00;7.47;;;4.23;;
21416;SDS011;10869;52.238;10.716;2023-11-21T19:30:26;13.40;;;5.63;;
21416;SDS011;10869;52.238;10.716;2023-11-21T19:32:52;13.50;;;5.20;;
21416;SDS011;10869;52.238;10.716;2023-11-21T19:35:18;9.30;;;4.77;;
21416;SDS011;10869;52.238;10.716;2023-11-21T19:37:45;9.33;;;5.03;;
21416;SDS011;10869;52.238;10.716;2023-11-21T19:40:10;8.77;;;4.63;;
21416;SDS011;10869;52.238;10.716;2023-11-21T19:42:37;11.37;;;5.40;;
21416;SDS011;10869;52.238;10.716;2023-11-21T19:45:04;9.73;;;4.83;;
21416;SDS011;10869;52.238;10.716;2023-11-21T19:47:30;10.33;;;5.50;;
21416;SDS011;10869;52.238;10.716;2023-11-21T19:49:58;11.43;;;6.47;;
21416;SDS011;10869;52.238;10.716;2023-11-21T19:54:59;10.50;;;5.17;;
21416;SDS011;10869;52.238;10.716;2023-11-21T19:57:25;9.77;;;5.13;;
21416;SDS011;10869;52.238;10.716;2023-11-21T19:59:51;10.87;;;4.93;;
21416;SDS011;10869;52.238;10.716;2023-11-21T20:02:25;9.20;;;4.93;;
21416;SDS011;10869;52.238;10.716;2023-11-21T20:13:25;11.97;;;5.37;;
21416;SDS011;10869;52.238;10.716;2023-11-21T20:15:50;11.57;;;6.47;;
21416;SDS011;10869;52.238;10.716;2023-11-21T20:18:16;8.57;;;4.50;;
21416;SDS011;10869;52.238;10.716;2023-11-21T20:20:45;9.67;;;4.87;;
21416;SDS011;10869;52.238;10.716;2023-11-21T20:23:11;12.13;;;5.97;;
21416;SDS011;10869;52.238;10.716;2023-11-21T20:25:38;10.70;;;5.23;;
21416;SDS011;10869;52.238;10.716;2023-11-21T20:28:04;11.70;;;5.97;;
21416;SDS011;10869;52.238;10.716;2023-11-21T20:30:33;11.40;;;5.83;;
21416;SDS011;10869;52.238;10.716;2023-11-21T20:32:59;10.73;;;5.07;;
21416;SDS011;10869;52.238;10.716;2023-11-21T20:35:28;9.33;;;5.53;;
21416;SDS011;10869;52.238;10.716;2023-11-21T20:37:55;11.30;;;5.23;;
21416;SDS011;10869;52.238;10.716;2023-11-21T20:43:43;12.57;;;5.30;;
21416;SDS011;10869;52.238;10.716;2023-11-21T20:49:31;8.43;;;4.37;;
21416;SDS011;10869;52.238;10.716;2023-11-21T20:51:57;9.07;;;5.20;;
21416;SDS011;10869;52.238;10.716;2023-11-21T20:54:22;11.07;;;5.80;;
21416;SDS011;10869;52.238;10.716;2023-11-21T20:56:48;11.60;;;6.23;;
21416;SDS011;10869;52.238;10.716;2023-11-21T20:59:15;11.33;;;5.90;;
21416;SDS011;10869;52.238;10.716;2023-11-21T21:05:03;12.63;;;7.13;;
21416;SDS011;10869;52.238;10.716;2023-11-21T21:07:31;14.90;;;8.30;;
21416;SDS011;10869;52.238;10.716;2023-11-21T21:13:19;11.23;;;5.93;;
21416;SDS011;10869;52.238;10.716;2023-11-21T21:19:08;8.30;;;4.33;;
21416;SDS011;10869;52.238;10.716;2023-11-21T21:21:34;8.50;;;4.80;;
21416;SDS011;10869;52.238;10.716;2023-11-21T21:24:00;11.67;;;6.10;;
21416;SDS011;10869;52.238;10.716;2023-11-21T21:26:26;11.83;;;5.70;;
21416;SDS011;10869;52.238;10.716;2023-11-21T21:28:53;11.20;;;5.27;;
21416;SDS011;10869;52.238;10.716;2023-11-21T21:34:43;12.67;;;5.63;;
21416;SDS011;10869;52.238;10.716;2023-11-21T21:37:09;11.40;;;5.70;;
21416;SDS011;10869;52.238;10.716;2023-11-21T21:39:35;10.10;;;5.50;;
21416;SDS011;10869;52.238;10.716;2023-11-21T21:42:01;10.63;;;5.50;;
21416;SDS011;10869;52.238;10.716;2023-11-21T21:47:49;9.00;;;4.87;;
21416;SDS011;10869;52.238;10.716;2023-11-21T21:53:37;13.80;;;5.30;;
21416;SDS011;10869;52.238;10.716;2023-11-21T21:56:03;11.63;;;5.50;;
21416;SDS011;10869;52.238;10.716;2023-11-21T22:01:51;12.60;;;6.27;;
21416;SDS011;10869;52.238;10.716;2023-11-21T22:04:18;11.50;;;5.33;;
21416;SDS011;10869;52.238;10.716;2023-11-21T22:06:44;9.73;;;5.50;;
21416;SDS011;10869;52.238;10.716;2023-11-21T22:09:09;12.30;;;5.73;;
21416;SDS011;10869;52.238;10.716;2023-11-21T22:11:37;9.80;;;5.40;;
21416;SDS011;10869;52.238;10.716;2023-11-21T22:14:05;10.47;;;5.07;;
21416;SDS011;10869;52.238;10.716;2023-11-21T22:16:32;9.97;;;5.57;;
21416;SDS011;10869;52.238;10.716;2023-11-21T22:18:58;11.97;;;6.23;;
21416;SDS011;10869;52.238;10.716;2023-11-21T22:21:24;12.43;;;6.30;;
21416;SDS011;10869;52.238;10.716;2023-11-21T22:23:51;10.63;;;5.33;;
21416;SDS011;10869;52.238;10.716;2023-11-21T22:26:17;12.43;;;6.40;;
21416;SDS011;10869;52.238;10.716;2023-11-21T22:28:45;10.00;;;5.53;;
21416;SDS011;10869;52.238;10.716;2023-11-21T22:31:11;11.03;;;6.33;;
21416;SDS011;10869;52.238;10.716;2023-11-21T22:33:37;15.50;;;6.40;;
21416;SDS011;10869;52.238;10.716;2023-11-21T22:36:03;11.63;;;5.97;;
21416;SDS011;10869;52.238;10.716;2023-11-21T22:38:30;13.53;;;6.60;;
21416;SDS011;10869;52.238;10.716;2023-11-21T22:40:55;13.27;;;6.37;;
21416;SDS011;10869;52.238;10.716;2023-11-21T22:43:21;11.37;;;6.97;;
21416;SDS011;10869;52.238;10.716;2023-11-21T22:45:47;14.57;;;6.93;;
21416;SDS011;10869;52.238;10.716;2023-11-21T22:48:13;14.03;;;7.10;;
21416;SDS011;10869;52.238;10.716;2023-11-21T22:50:38;12.80;;;6.80;;
21416;SDS011;10869;52.238;10.716;2023-11-21T22:53:04;12.57;;;6.23;;
21416;SDS011;10869;52.238;10.716;2023-11-21T22:55:30;12.33;;;6.57;;
21416;SDS011;10869;52.238;10.716;2023-11-21T22:57:57;12.20;;;5.97;;
21416;SDS011;10869;52.238;10.716;2023-11-21T23:00:26;11.90;;;5.93;;
21416;SDS011;10869;52.238;10.716;2023-11-21T23:02:57;13.50;;;5.93;;
21416;SDS011;10869;52.238;10.716;2023-11-21T23:05:26;11.27;;;6.30;;
21416;SDS011;10869;52.238;10.716;2023-11-21T23:07:52;13.60;;;6.10;;
21416;SDS011;10869;52.238;10.716;2023-11-21T23:10:22;12.27;;;5.77;;
21416;SDS011;10869;52.238;10.716;2023-11-21T23:12:52;11.57;;;6.07;;
21416;SDS011;10869;52.238;10.716;2023-11-21T23:15:21;10.97;;;6.33;;
21416;SDS011;10869;52.238;10.716;2023-11-21T23:17:52;13.30;;;5.90;;
21416;SDS011;10869;52.238;10.716;2023-11-21T23:20:19;16.43;;;6.97;;
21416;SDS011;10869;52.238;10.716;2023-11-21T23:23:07;14.27;;;6.43;;
21416;SDS011;10869;52.238;10.716;2023-11-21T23:26:01;10.43;;;6.33;;
21416;SDS011;10869;52.238;10.716;2023-11-21T23:29:11;13.37;;;6.60;;
